Flight Track Log - Related Links

Times and Time Zones

All times are in EDT time to prevent confusion due to time zone crossing. See the N132CE flight status page for this flight to view local times or setup timezone preferences in your user account.

Time Position Orientation Groundspeed Altitude Reporting Facility
EDT Latitude Longitude Course Direction KTS MPH feet Rate Location/Type
Wed 12:19:44 PM 29.5631 -95.2114 145° Southeast 213 245 4,900  Level Houston Center
Wed 12:20:08 PM 29.5447 -95.1944 141° Southeast 227 261 5,000 1,475 Climbing Houston Center
Wed 12:20:45 PM 29.5019 -95.1853 169° South 255 293 6,400 2,032 Climbing Houston Center
Wed 12:21:10 PM 29.4778 -95.1853 180° South 247 284 7,100 2,647 Climbing Houston Center
Wed 12:21:53 PM 29.4169 -95.1764 173° South 286 329 9,400 2,710 Climbing Houston Center
Wed 12:22:12 PM 29.4047 -95.1686 151° Southeast 279 321 9,900 2,148 Climbing Houston Center
Wed 12:23:14 PM 29.3592 -95.0969 126° Southeast 307 353 12,300 2,419 Climbing Houston Center
Wed 12:24:16 PM 29.3942 -94.9881 70° East 331 381 14,900 1,839 Climbing Houston Center
Wed 12:25:18 PM 29.4478 -94.8992 55° Northeast 345 397 16,100 1,694 Climbing Houston Center
Wed 12:26:20 PM 29.5064 -94.7989 56° Northeast 379 436 18,400 2,323 Climbing Houston Center
Wed 12:27:22 PM 29.5411 -94.6889 70° East 369 425 20,900 2,371 Climbing Houston Center
Wed 12:28:24 PM 29.5719 -94.5500 76° East 375 432 23,300 1,920 Climbing Houston Center
Wed 12:29:27 PM 29.5981 -94.4308 76° East 384 442 24,900 1,584 Climbing Houston Center
Wed 12:30:29 PM 29.6258 -94.3081 75° East 397 457 26,600 1,548 Climbing Houston Center
Wed 12:31:31 PM 29.6539 -94.1847 75° East 399 459 28,100 1,403 Climbing Houston Center
Wed 12:32:33 PM 29.6825 -94.0497 76° East 409 471 29,500 1,296 Climbing Houston Center
Wed 12:33:36 PM 29.6839 -93.9158 89° East 422 486 30,800 1,065 Climbing Houston Center
Wed 12:34:37 PM 29.6836 -93.7817 90° East 424 488 31,700 1,220 Climbing Houston Center
Wed 12:35:39 PM 29.6822 -93.6169 91° East 432 497 33,300 1,452 Climbing Houston Center
Wed 12:36:41 PM 29.6792 -93.4819 91° East 428 493 34,700 1,306 Climbing Houston Center
Wed 12:37:43 PM 29.6781 -93.3486 91° East 423 487 36,000 1,152 Climbing Houston Center
Wed 12:38:46 PM 29.6767 -93.2178 91° East 415 478 37,100 816 Climbing Houston Center
Wed 12:39:48 PM 29.6744 -93.0867 91° East 413 475 37,700 581 Climbing Houston Center
Wed 12:40:50 PM 29.6722 -92.9239 91° East 427 491 38,300 484 Climbing Houston Center
Wed 12:41:52 PM 29.6647 -92.7850 94° East 437 503 38,700 290 Climbing Houston Center
Wed 12:42:54 PM 29.6319 -92.6481 105° East 447 514 38,900 339 Climbing Houston Center
Wed 12:43:56 PM 29.5961 -92.5111 107° East 449 517 39,400 435 Climbing Houston Center
Wed 12:44:58 PM 29.5619 -92.3744 106° East 447 514 39,800 435 Climbing Houston Center
Wed 12:46:00 PM 29.5269 -92.2353 106° East 452 520 40,300 532 Climbing Houston Center
Wed 12:47:02 PM 29.4844 -92.0717 107° East 450 518 40,900 290 Climbing Houston Center
Wed 12:48:04 PM 29.4503 -91.9319 106° East 453 521 40,900  Level Houston Center
Wed 12:49:06 PM 29.4125 -91.7911 107° East 459 528 40,900  Level Houston Center
Wed 12:50:08 PM 29.3764 -91.6472 106° East 468 539 40,900  Level Houston Center
Wed 12:51:10 PM 29.3392 -91.5028 106° East 473 544 40,900  Level Houston Center
Wed 12:52:12 PM 29.2919 -91.3261 107° East 482 555 40,900  Level Houston Center
Wed 12:53:14 PM 29.2539 -91.1797 107° East 482 555 40,900  Level Houston Center
Wed 12:54:17 PM 29.2153 -91.0328 107° East 484 557 40,900  Level Houston Center
Wed 12:55:19 PM 29.1761 -90.8867 107° East 481 554 40,900  Level Houston Center
Wed 12:56:20 PM 29.1367 -90.7397 107° East 485 558 40,900  Level Houston Center
Wed 12:57:22 PM 29.0975 -90.5917 107° East 487 560 40,900  Level Houston Center
Wed 12:58:24 PM 29.0497 -90.4156 107° East 486 559 40,900  Level Houston Center
Wed 12:59:26 PM 29.0097 -90.2686 107° East 486 559 40,900  Level Houston Center
Wed 01:00:28 PM 28.9703 -90.1225 107° East 484 557 40,900  Level Houston Center
Wed 01:01:30 PM 28.9289 -89.9761 108° East 486 559 40,900  Level Houston Center
Wed 01:02:32 PM 28.8897 -89.8283 107° East 487 560 40,900  Level Houston Center
Wed 01:03:34 PM 28.8406 -89.6517 108° East 489 563 40,900  Level Houston Center
Wed 01:04:36 PM 28.7997 -89.5022 107° East 494 568 40,900  Level Houston Center
Wed 01:05:38 PM 28.7586 -89.3556 108° East 491 565 40,900  Level Houston Center
Wed 01:06:40 PM 28.7175 -89.2081 108° East 489 563 40,900  Level Houston Center
Wed 01:07:42 PM 28.6769 -89.0611 107° East 489 563 40,900  Level Houston Center
Wed 01:08:44 PM 28.6347 -88.9150 108° East 488 562 40,900  Level Houston Center
Wed 01:09:46 PM 28.5847 -88.7411 108° East 486 559 40,900  Level Houston Center
Wed 01:10:48 PM 28.5433 -88.5939 108° East 488 562 40,900  Level Houston Center
Wed 01:11:50 PM 28.5008 -88.4472 108° East 490 564 40,900  Level Houston Center
Wed 01:12:52 PM 28.4589 -88.2989 108° East 492 566 40,900  Level Houston Center
Wed 01:13:54 PM 28.4167 -88.1525 108° East 490 564 40,900  Level Houston Center
Wed 01:14:56 PM 28.3714 -87.9986 108° East 488 562 40,900  Level Houston Center
Wed 01:15:58 PM 28.3300 -87.8511 108° East 491 565 40,900  Level Houston Center
Wed 01:17:00 PM 28.2783 -87.6756 108° East 492 566 40,900  Level Houston Center
Wed 01:18:02 PM 28.2361 -87.5278 108° East 494 568 40,900  Level Houston Center
Wed 01:19:04 PM 28.1931 -87.3811 108° East 492 566 40,900  Level Houston Center
Wed 01:20:06 PM 28.1503 -87.2333 108° East 494 568 40,900  Level Houston Center
Wed 01:21:08 PM 28.1069 -87.0867 108° East 491 565 40,900  Level Houston Center
Wed 01:21:46 PM 28.0764 -86.9922 110° East 498 573 40,900  Level Jacksonville Center
Wed 01:22:46 PM 28.0350 -86.8472 108° East 498 573 40,900  Level Jacksonville Center
Wed 01:23:46 PM 27.9914 -86.6997 108° East 493 567 40,900  Level Jacksonville Center
Wed 01:24:46 PM 27.9458 -86.5478 109° East 488 562 40,900  Level Jacksonville Center
Wed 01:25:46 PM 27.9039 -86.4031 108° East 491 565 40,900  Level Jacksonville Center
Wed 01:26:46 PM 27.8581 -86.2467 108° East 501 577 40,900  Level Jacksonville Center
Wed 01:27:46 PM 27.8178 -86.1044 108° East 496 571 40,900  Level Jacksonville Center
Wed 01:28:46 PM 27.7733 -85.9578 109° East 496 571 40,900  Level Jacksonville Center
Wed 01:29:46 PM 27.7289 -85.8086 109° East 490 564 40,900  Level Jacksonville Center
Wed 01:30:10 PM 27.7056 -85.7294 108° East 493 567 40,900  Level Miami Center
Wed 01:31:10 PM 27.6586 -85.5783 109° East 513 590 40,900  Level Miami Center
Wed 01:32:10 PM 27.6186 -85.4442 109° East 508 585 40,900  Level Miami Center
Wed 01:33:10 PM 27.5878 -85.2969 103° East 514 592 40,900  Level Miami Center
Wed 01:34:10 PM 27.5511 -85.1400 105° East 503 579 40,900  Level Miami Center
Wed 01:35:10 PM 27.5244 -84.9861 101° East 498 573 40,900  Level Miami Center
Wed 01:36:10 PM 27.4997 -84.8325 100° East 498 573 40,900  Level Miami Center
Wed 01:37:10 PM 27.4686 -84.6761 103° East 498 573 40,900  Level Miami Center
Wed 01:38:10 PM 27.4478 -84.5206 99° East 498 573 40,900  Level Miami Center
Wed 01:39:10 PM 27.4122 -84.3661 105° East 498 573 40,900  Level Miami Center
Wed 01:40:10 PM 27.3928 -84.2131 98° East 493 567 40,900  Level Miami Center
Wed 01:41:10 PM 27.3589 -84.0592 104° East 493 567 40,900  Level Miami Center
Wed 01:42:10 PM 27.3353 -83.9036 100° East 493 567 40,900 -850 Level Miami Center
Wed 01:43:10 PM 27.3072 -83.7500 102° East 493 567 39,200 -1,600 Descending Miami Center
Wed 01:44:10 PM 27.2853 -83.5994 99° East 487 560 37,700 -1,400 Descending Miami Center
Wed 01:45:10 PM 27.2525 -83.4506 104° East 487 560 36,400 -1,950 Descending Miami Center
Wed 01:46:10 PM 27.2175 -83.3039 105° East 492 566 33,800 -2,100 Descending Miami Center
Wed 01:47:10 PM 27.1861 -83.1597 104° East 486 559 32,200 -950 Descending Miami Center
Wed 01:48:10 PM 27.1608 -83.0208 102° East 473 544 31,900 -550 Descending Miami Center
Wed 01:49:10 PM 27.1378 -82.8772 100° East 462 532 31,100 -500 Descending Miami Center
Wed 01:50:10 PM 27.1078 -82.7406 104° East 456 525 30,900 -250 Descending Miami Center
Wed 01:51:10 PM 27.0717 -82.5989 106° East 456 525 30,600 -700 Descending Miami Center
Wed 01:52:10 PM 27.0339 -82.4456 105° East 461 531 29,500 -1,050 Descending Miami Center
Wed 01:53:10 PM 27.0036 -82.3114 104° East 455 524 28,500 -1,000 Descending Miami Center
Wed 01:54:10 PM 26.9669 -82.1744 107° East 455 524 27,500 -1,000 Descending Miami Center
Wed 01:55:10 PM 26.9342 -82.0403 105° East 455 524 26,500 -1,350 Descending Miami Center
Wed 01:56:10 PM 26.8947 -81.9150 109° East 436 502 24,800 -2,100 Descending Miami Center
Wed 01:57:10 PM 26.8147 -81.8186 133° Southeast 413 475 22,300 -2,450 Descending Miami Center
Wed 01:58:10 PM 26.7364 -81.7269 134° Southeast 408 470 19,900 -1,650 Descending Miami Center
Wed 01:59:10 PM 26.6933 -81.6392 119° Southeast 394 453 19,000 -600 Descending Miami Center
Wed 02:00:10 PM 26.7200 -81.5242 75° East 324 373 18,700 -500 Descending Miami Center
Wed 02:01:10 PM 26.7422 -81.4156 77° East 352 405 18,000 -800 Descending Miami Center
Wed 02:02:10 PM 26.7519 -81.3067 84° East 352 405 17,100 -950 Descending Miami Center
Wed 02:03:10 PM 26.7403 -81.2086 98° East 347 399 16,100 -1,350 Descending Miami Center
Wed 02:04:10 PM 26.7519 -81.0928 84° East 347 399 14,400 -1,750 Descending Miami Center
Wed 02:05:10 PM 26.7800 -80.9961 72° East 342 394 12,600 -1,650 Descending Miami Center
Wed 02:06:10 PM 26.7953 -80.8942 80° East 330 380 11,100 -1,700 Descending Miami Center
Wed 02:07:10 PM 26.7956 -80.8058 90° East 325 374 9,200 -1,050 Descending Miami Center
Wed 02:08:10 PM 26.7517 -80.7322 124° Southeast 287 330 9,000 -450 Descending Miami Center
Wed 02:09:10 PM 26.6842 -80.6789 145° Southeast 281 323 8,300 -1,000 Descending Miami Center
Wed 02:10:10 PM 26.6289 -80.6331 143° Southeast 276 318 7,000 -1,400 Descending Miami Center
Wed 02:11:10 PM 26.5783 -80.5733 133° Southeast 249 287 5,500 -1,500 Descending Miami Center
Wed 02:12:10 PM 26.5592 -80.5078 108° East 249 287 4,000 -1,200 Descending Miami Center
Wed 02:13:10 PM 26.5294 -80.4372 115° Southeast 236 272 3,100 -500 Descending Miami Center
Wed 02:14:10 PM 26.5019 -80.3714 115° Southeast 236 272 3,000 -71 Descending Miami Center
Wed 02:14:34 PM 26.4900 -80.3456 117° Southeast 231 266 3,000  Level Miami Center
Wed 02:15:10 PM 26.4806 -80.3058 105° East 230 265 3,000 -735 Level Miami Center
Wed 02:16:12 PM 26.4819 -80.2361 89° East 221 254 1,800 -732 Descending Miami Center
Wed 02:17:13 PM 26.4517 -80.1933 128° Southeast 202 232 1,500 -155 Descending Miami Center
Wed 02:18:08 PM 26.3997 -80.1872 174° South 201 231 1,500 -310 Level Miami Center
Wed 02:19:09 PM 26.3606 -80.1561 145° Southeast 167 192 900 -689 Descending Miami Center
Wed 02:20:10 PM 26.3656 -80.1192 81° East 126 145 100 -787 Descending Miami Center
Wed 02:22:00 PM 26.3667 -80.1000 180° South  Level FlightAware Approximate
Wed 02:29:00 PM 26.3785 -80.1077 180° South  Level Estimated

Login

Don't have an account? Register now (free) for customized features, flight alerts, and more!